Time;durP1;ratioP1;P1;durP2;ratioP2;P2;SDS_P1;SDS_P2;PMS_P1;PMS_P2;Temp;Humidity;BMP_temperature;BMP_pressure;BME280_temperature;BME280_humidity;BME280_pressure;Samples;Min_cycle;Max_cycle;Signal;HPM_P1;HPM_P2
2022/08/25 15:21:59;;;;;;;2.92;1.25;;;36.40;71.20;;;;;;2050681;69;27807;-72
2022/08/25 15:24:27;;;;;;;1.62;1.10;;;35.60;69.90;;;;;;2008363;70;21120;-73
2022/08/25 15:26:57;;;;;;;4.35;1.20;;;34.60;71.50;;;;;;1964439;72;21527;-73
2022/08/25 15:29:25;;;;;;;;;;;35.10;72.00;;;;;;1933839;73;21505;-73
2022/08/25 15:31:52;;;;;;;6.05;1.30;;;35.00;71.60;;;;;;1973982;72;20164;-74
2022/08/25 15:34:19;;;;;;;1.77;1.20;;;34.30;74.20;;;;;;1973999;72;21028;-73
2022/08/25 15:36:47;;;;;;;6.05;1.70;;;33.70;74.30;;;;;;2012998;70;21024;-73
2022/08/25 15:39:14;;;;;;;1.30;1.05;;;34.20;75.90;;;;;;2010350;70;21125;-72
2022/08/25 15:41:42;;;;;;;1.25;1.10;;;35.10;72.70;;;;;;2009362;70;21188;-74
2022/08/25 15:44:10;;;;;;;1.35;1.25;;;35.10;71.90;;;;;;2021286;71;21065;-73
2022/08/25 15:46:38;;;;;;;1.62;1.25;;;34.30;73.70;;;;;;2010414;70;21032;-74
2022/08/25 15:49:05;;;;;;;2.75;1.00;;;33.60;75.90;;;;;;2007860;70;21027;-72
2022/08/25 15:51:32;;;;;;;2.42;1.10;;;33.90;75.50;;;;;;2018961;70;21039;-72
2022/08/25 15:54:00;;;;;;;1.80;1.10;;;33.80;74.30;;;;;;2006613;70;21132;-74
2022/08/25 15:56:27;;;;;;;1.67;1.37;;;33.60;75.00;;;;;;2010447;71;21029;-76
2022/08/25 15:58:54;;;;;;;1.20;1.10;;;34.50;75.40;;;;;;2006856;70;21450;-75
2022/08/25 16:01:23;;;;;;;1.10;1.10;;;34.50;73.60;;;;;;2010372;71;21047;-74
2022/08/25 16:03:51;;;;;;;5.92;1.15;;;33.40;73.90;;;;;;2008516;70;21041;-74
2022/08/25 16:06:18;;;;;;;1.15;1.10;;;33.10;75.20;;;;;;1970748;73;21004;-70
2022/08/25 16:08:46;;;;;;;4.45;1.20;;;33.10;75.30;;;;;;2003059;70;21118;-72
2022/08/25 16:11:21;;;;;;;7.67;1.17;;;33.40;76.30;;;;;;2007507;70;21203;-71
2022/08/25 16:13:49;;;;;;;3.00;1.20;;;33.10;77.20;;;;;;1966279;72;21029;-72
2022/08/25 16:16:17;;;;;;;1.85;1.30;;;33.20;76.60;;;;;;2006937;70;21146;-81
2022/08/25 16:18:44;;;;;;;1.32;1.00;;;32.60;77.50;;;;;;2006545;70;21077;-72
2022/08/25 16:21:12;;;;;;;1.72;1.30;;;32.90;77.80;;;;;;2001548;70;21033;-71
2022/08/25 16:23:40;;;;;;;1.85;1.15;;;33.40;75.60;;;;;;1969597;72;21460;-70
2022/08/25 16:26:08;;;;;;;2.83;1.40;;;33.80;76.10;;;;;;1936872;74;21184;-70
2022/08/25 16:28:36;;;;;;;4.35;1.30;;;33.40;75.60;;;;;;2010053;70;21136;-72
2022/08/25 16:31:04;;;;;;;3.92;1.50;;;33.40;74.70;;;;;;2014719;70;21021;-71
2022/08/25 16:33:32;;;;;;;2.77;1.32;;;33.30;75.50;;;;;;2010668;70;21098;-71
2022/08/25 16:36:10;;;;;;;3.02;1.30;;;33.00;75.80;;;;;;2011923;70;21047;-71
2022/08/25 16:38:39;;;;;;;1.12;1.10;;;33.40;75.70;;;;;;2004336;70;21484;-72
2022/08/25 16:41:08;;;;;;;2.97;1.30;;;33.20;76.20;;;;;;2006887;70;21048;-73
2022/08/25 16:43:35;;;;;;;1.42;1.22;;;32.80;76.60;;;;;;1961194;72;21205;-72
2022/08/25 16:46:06;;;;;;;1.42;1.20;;;33.30;75.00;;;;;;1928988;73;21054;-72
2022/08/25 16:48:34;;;;;;;1.50;1.40;;;33.50;73.50;;;;;;1944447;73;21015;-73
2022/08/25 16:51:10;;;;;;;2.60;1.30;;;33.00;75.00;;;;;;2002095;70;21046;-71
2022/08/25 16:56:23;;;;;;;2.60;1.42;;;32.80;75.50;;;;;;2009618;71;21523;-71
2022/08/25 16:58:54;;;;;;;5.12;2.25;;;33.10;74.80;;;;;;2006241;70;21230;-73
2022/08/25 17:01:21;;;;;;;1.47;1.37;;;33.30;74.80;;;;;;2004727;70;21052;-72
2022/08/25 17:03:51;;;;;;;1.65;1.20;;;33.50;74.40;;;;;;2009558;70;21125;-72
2022/08/25 17:06:18;;;;;;;1.20;1.10;;;32.40;76.00;;;;;;2010068;70;21629;-72
2022/08/25 17:08:48;;;;;;;2.52;1.27;;;32.20;76.60;;;;;;2007653;70;21420;-73
2022/08/25 17:11:23;;;;;;;1.20;1.10;;;32.40;76.70;;;;;;1968789;72;21073;-72
2022/08/25 17:13:52;;;;;;;3.87;1.27;;;32.50;77.60;;;;;;2006158;70;21162;-72
2022/08/25 17:16:20;;;;;;;1.40;1.30;;;32.70;76.20;;;;;;2006636;70;21112;-74
2022/08/25 17:18:48;;;;;;;2.52;1.25;;;33.20;76.70;;;;;;1965509;73;21004;-74
2022/08/25 17:21:17;;;;;;;1.37;1.00;;;33.10;74.70;;;;;;2015092;70;21062;-73
2022/08/25 17:23:44;;;;;;;5.05;1.60;;;32.90;76.10;;;;;;2014177;71;21398;-73
2022/08/25 17:26:13;;;;;;;3.20;1.10;;;32.90;76.80;;;;;;2009569;71;21423;-72
2022/08/25 17:28:40;;;;;;;1.52;1.20;;;33.10;77.60;;;;;;2000399;70;21120;-74
2022/08/25 17:31:08;;;;;;;6.80;1.25;;;32.70;76.60;;;;;;2018561;71;21158;-72
2022/08/25 17:33:35;;;;;;;1.77;1.10;;;32.60;76.80;;;;;;2013795;70;21051;-73
2022/08/25 17:36:03;;;;;;;2.72;1.35;;;32.80;77.00;;;;;;2011298;70;21132;-73
2022/08/25 17:38:32;;;;;;;2.92;1.30;;;32.90;77.40;;;;;;2009737;71;21113;-73
2022/08/25 17:41:02;;;;;;;2.22;1.02;;;32.90;77.70;;;;;;2003178;70;21132;-72
2022/08/25 17:43:30;;;;;;;1.57;1.15;;;32.70;81.10;;;;;;2011164;70;21459;-73
